createdAt,value
2023-03-25T00:00:42.295Z,3.4
2023-03-25T00:01:58.584Z,3.6
2023-03-25T00:03:14.876Z,3.8
2023-03-25T00:04:31.169Z,4.1
2023-03-25T00:05:47.462Z,3.5
2023-03-25T00:07:03.771Z,3.3
2023-03-25T00:08:20.068Z,3.4
2023-03-25T00:09:36.349Z,3.3
2023-03-25T00:10:52.656Z,3.5
2023-03-25T00:12:08.943Z,3.6
2023-03-25T00:13:25.232Z,3.7
2023-03-25T00:14:41.531Z,3.3
2023-03-25T00:15:56.832Z,3.6
2023-03-25T00:17:13.129Z,3.8
2023-03-25T00:18:29.415Z,3.6
2023-03-25T00:19:45.727Z,3.9
2023-03-25T00:21:02.016Z,3.5
2023-03-25T00:22:18.309Z,3.7
2023-03-25T00:23:34.612Z,3.7
2023-03-25T00:24:50.888Z,3.4
2023-03-25T00:26:07.185Z,3.8
2023-03-25T00:27:23.483Z,3.6
2023-03-25T00:28:39.775Z,3.6
2023-03-25T00:29:56.065Z,3.5
2023-03-25T00:31:12.367Z,3.8
2023-03-25T00:32:27.684Z,3.6
2023-03-25T00:33:43.980Z,3.4
2023-03-25T00:35:00.258Z,3.4
2023-03-25T00:36:16.553Z,3.2
2023-03-25T00:37:32.854Z,3.3
2023-03-25T00:38:49.156Z,3.6
2023-03-25T00:40:05.447Z,3.5
2023-03-25T00:41:21.744Z,3.3
2023-03-25T00:42:38.038Z,3.3
2023-03-25T00:43:54.319Z,3.3
2023-03-25T00:45:10.624Z,3.1
2023-03-25T00:46:26.917Z,3.1
2023-03-25T00:47:43.206Z,3.1
2023-03-25T00:48:58.511Z,3.2
2023-03-25T00:50:14.798Z,3.3
2023-03-25T00:51:31.094Z,3.2
2023-03-25T00:52:47.388Z,3
2023-03-25T00:54:03.691Z,2.8
2023-03-25T00:55:19.978Z,3.1
2023-03-25T00:56:36.282Z,3.2
2023-03-25T00:57:52.566Z,3.2
2023-03-25T00:59:08.874Z,2.8
2023-03-25T01:00:25.162Z,2.9
2023-03-25T01:01:41.450Z,3
2023-03-25T01:02:57.747Z,2.9
2023-03-25T01:04:14.047Z,3
2023-03-25T01:05:29.348Z,3.1
2023-03-25T01:06:45.646Z,2.8
2023-03-25T01:08:01.933Z,3
2023-03-25T01:09:18.242Z,2.8
2023-03-25T01:10:34.536Z,2.9
2023-03-25T01:11:50.814Z,3.1
2023-03-25T01:14:23.400Z,2.9
2023-03-25T01:15:39.712Z,2.6
2023-03-25T01:16:55.995Z,2.7
2023-03-25T01:18:12.289Z,2.7
2023-03-25T01:19:28.591Z,2.8
2023-03-25T01:20:44.871Z,2.9
2023-03-25T01:22:00.188Z,2.7
2023-03-25T01:23:16.477Z,2.5
2023-03-25T01:24:32.772Z,2.6
2023-03-25T01:25:49.063Z,2.6
2023-03-25T01:27:05.364Z,2.5
2023-03-25T01:28:21.652Z,2.4
2023-03-25T01:29:37.962Z,2.9
2023-03-25T01:30:54.243Z,2.6
2023-03-25T01:32:10.537Z,2.5
2023-03-25T01:33:26.840Z,3
2023-03-25T01:34:43.124Z,2.8
2023-03-25T01:35:59.429Z,2.7
2023-03-25T01:37:15.721Z,2.7
2023-03-25T01:38:31.031Z,2.7
2023-03-25T01:39:47.321Z,2.7
2023-03-25T01:41:03.618Z,2.7
2023-03-25T01:42:19.904Z,2.4
2023-03-25T01:43:36.202Z,2.7
2023-03-25T01:44:52.497Z,2.4
2023-03-25T01:46:08.791Z,2.4
2023-03-25T01:47:25.084Z,2.4
2023-03-25T01:48:41.383Z,2.4
2023-03-25T01:49:57.667Z,2.4
2023-03-25T01:51:13.962Z,2.6
2023-03-25T01:52:30.257Z,2.5
2023-03-25T01:53:46.563Z,2.5
2023-03-25T01:55:01.866Z,2.5
2023-03-25T01:56:18.166Z,2
2023-03-25T01:57:34.451Z,2.5
2023-03-25T01:58:50.751Z,2.4
2023-03-25T02:00:07.033Z,2.3
2023-03-25T02:01:23.325Z,2.3
2023-03-25T02:02:39.626Z,2.3
2023-03-25T02:03:55.933Z,2.3
2023-03-25T02:05:12.209Z,2.5
2023-03-25T02:06:28.508Z,2.5
2023-03-25T02:07:44.799Z,2.3
2023-03-25T02:09:01.105Z,2.3
2023-03-25T02:10:17.385Z,2.4
2023-03-25T02:11:32.710Z,2.5
2023-03-25T02:12:49.007Z,2.8
2023-03-25T02:14:05.290Z,2.4
2023-03-25T02:15:21.590Z,2.5
2023-03-25T02:16:37.883Z,2.5
2023-03-25T02:17:54.174Z,2.8
2023-03-25T02:19:10.476Z,2.5
2023-03-25T02:20:26.768Z,2.7
2023-03-25T02:21:43.047Z,2.8
2023-03-25T02:22:59.352Z,2.8
2023-03-25T02:24:15.639Z,2.7
2023-03-25T02:25:31.938Z,2.9
2023-03-25T02:26:48.224Z,3.1
2023-03-25T02:28:03.537Z,2.7
2023-03-25T02:29:19.825Z,3.1
2023-03-25T02:30:36.132Z,3.1
2023-03-25T02:31:52.416Z,2.8
2023-03-25T02:33:08.719Z,3
2023-03-25T02:34:25.008Z,3
2023-03-25T02:35:41.313Z,3.5
2023-03-25T02:36:57.596Z,3
2023-03-25T02:38:13.891Z,3.3
2023-03-25T02:39:30.184Z,3
2023-03-25T02:40:46.479Z,3
2023-03-25T02:42:02.768Z,3
2023-03-25T02:43:19.073Z,3.3
2023-03-25T02:44:34.374Z,3.3
2023-03-25T02:45:50.673Z,3.2
2023-03-25T02:47:06.975Z,3.1
2023-03-25T02:48:23.259Z,3
2023-03-25T02:49:39.562Z,3.3
2023-03-25T02:50:55.844Z,3.4
2023-03-25T02:52:12.149Z,3.6
2023-03-25T02:53:28.428Z,3.3
2023-03-25T02:54:44.732Z,3.5
2023-03-25T02:56:01.028Z,3.6
2023-03-25T02:57:17.317Z,3.3
2023-03-25T02:58:33.614Z,3.7
2023-03-25T02:59:49.906Z,3.1
2023-03-25T03:01:05.211Z,3.2
2023-03-25T03:02:21.508Z,3.5
2023-03-25T03:03:37.811Z,3.7
2023-03-25T03:04:54.090Z,3.6
2023-03-25T03:06:10.401Z,3.4
2023-03-25T03:07:25.716Z,3.4
2023-03-25T03:08:41.999Z,3.8
2023-03-25T03:09:58.302Z,3.4
2023-03-25T03:11:14.598Z,3.6
2023-03-25T03:12:30.881Z,3.8
2023-03-25T03:13:47.170Z,3.4
2023-03-25T03:15:03.467Z,3.6
2023-03-25T03:16:19.760Z,3.4
2023-03-25T03:17:36.064Z,3.1
2023-03-25T03:18:52.362Z,3.3
2023-03-25T03:20:08.658Z,3.4
2023-03-25T03:21:24.935Z,3.5
2023-03-25T03:22:41.239Z,3.3
2023-03-25T03:23:56.553Z,3.2
2023-03-25T03:25:12.831Z,3.3
2023-03-25T03:26:29.129Z,3.2
2023-03-25T03:27:45.435Z,3.3
2023-03-25T03:29:01.716Z,3.1
2023-03-25T03:30:18.024Z,3.4
2023-03-25T03:31:34.299Z,3.1
2023-03-25T03:32:50.595Z,3.1
2023-03-25T03:34:06.903Z,3.5
2023-03-25T03:35:23.180Z,3.3
2023-03-25T03:36:39.481Z,3.2
2023-03-25T03:37:55.782Z,3.3
2023-03-25T03:39:12.070Z,2.8
2023-03-25T03:40:27.383Z,2.8
2023-03-25T03:41:43.683Z,2.8
2023-03-25T03:42:59.979Z,2.8
2023-03-25T03:44:16.257Z,3.2
2023-03-25T03:45:32.554Z,2.7
2023-03-25T03:46:48.846Z,2.7
2023-03-25T03:48:05.151Z,2.6
2023-03-25T03:49:21.000Z,2.5
2023-03-25T03:50:37.737Z,2.3
2023-03-25T03:51:54.030Z,2.5
2023-03-25T03:53:10.314Z,2.7
2023-03-25T03:54:26.608Z,2.4
2023-03-25T03:55:42.908Z,2.6
2023-03-25T03:56:58.223Z,2.5
2023-03-25T03:58:14.523Z,2.5
2023-03-25T03:59:30.817Z,2.5
2023-03-25T04:00:47.093Z,2.5
2023-03-25T04:02:03.398Z,2.3
2023-03-25T04:03:19.682Z,2.4
2023-03-25T04:04:35.977Z,2.2
2023-03-25T04:05:52.272Z,2.2
2023-03-25T04:07:08.572Z,2.3
2023-03-25T04:08:24.863Z,2.7
2023-03-25T04:09:41.150Z,2.4
2023-03-25T04:10:57.448Z,2.3
2023-03-25T04:12:13.749Z,2.2
2023-03-25T04:13:29.052Z,2.4
2023-03-25T04:14:45.362Z,2.1
2023-03-25T04:16:01.639Z,2.2
2023-03-25T04:17:17.942Z,2.2
2023-03-25T04:18:34.226Z,2
2023-03-25T04:19:50.533Z,2.2
2023-03-25T04:21:06.832Z,2.1
2023-03-25T04:22:23.110Z,2.2
2023-03-25T04:23:39.418Z,2
2023-03-25T04:24:55.699Z,2.1
2023-03-25T04:26:12.003Z,2.2
2023-03-25T04:27:28.298Z,2.3
2023-03-25T04:28:44.577Z,2
2023-03-25T04:29:59.897Z,2
2023-03-25T04:31:16.186Z,2
2023-03-25T04:32:32.478Z,2.3
2023-03-25T04:33:48.773Z,2.6
2023-03-25T04:35:05.064Z,2.2
2023-03-25T04:36:21.377Z,1.9
2023-03-25T04:37:37.658Z,2
2023-03-25T04:38:53.947Z,2.2
2023-03-25T04:40:10.191Z,2.1
2023-03-25T04:41:26.491Z,1.9
2023-03-25T04:42:42.789Z,2.2
2023-03-25T04:43:59.023Z,1.8
2023-03-25T04:45:15.276Z,2.1
2023-03-25T04:46:30.536Z,2.1
2023-03-25T04:47:46.762Z,2.2
2023-03-25T04:49:03.028Z,2.5
2023-03-25T04:50:19.253Z,2.2
2023-03-25T04:51:35.499Z,2
2023-03-25T04:52:51.740Z,2.2
2023-03-25T04:54:07.970Z,2.1
2023-03-25T04:55:24.226Z,2
2023-03-25T04:56:40.452Z,1.8
2023-03-25T04:57:56.698Z,2
2023-03-25T04:59:12.936Z,1.8
2023-03-25T05:00:29.180Z,1.9
2023-03-25T05:01:45.413Z,1.9
2023-03-25T05:03:00.677Z,1.8
2023-03-25T05:04:16.920Z,1.7
2023-03-25T05:05:33.160Z,1.6
2023-03-25T05:06:49.399Z,1.6
2023-03-25T05:08:05.634Z,1.5
2023-03-25T05:09:21.877Z,1.6
2023-03-25T05:10:38.111Z,1.4
2023-03-25T05:11:54.354Z,1.3
2023-03-25T05:13:10.598Z,1.4
2023-03-25T05:14:26.842Z,1.4
2023-03-25T05:15:43.084Z,1.3
2023-03-25T05:16:59.314Z,1.2
2023-03-25T05:18:15.557Z,1.2
2023-03-25T05:19:30.810Z,1.1
2023-03-25T05:20:47.052Z,1.3
2023-03-25T05:22:03.283Z,1.1
2023-03-25T05:23:19.531Z,1
2023-03-25T05:24:35.775Z,1.3
2023-03-25T05:25:52.013Z,1.1
2023-03-25T05:27:08.251Z,1.1
2023-03-25T05:28:24.497Z,1.2
2023-03-25T05:29:40.724Z,1.2
2023-03-25T05:30:56.962Z,1.1
2023-03-25T05:32:13.208Z,1.2
2023-03-25T05:33:29.446Z,1.1
2023-03-25T05:34:45.689Z,1.1
2023-03-25T05:36:02.055Z,1.2
2023-03-25T05:37:18.287Z,1.2
2023-03-25T05:38:34.529Z,1.2
2023-03-25T05:39:50.763Z,1.2
2023-03-25T05:41:07.020Z,1.1
2023-03-25T05:42:23.255Z,1
2023-03-25T05:43:39.488Z,1.1
2023-03-25T05:44:55.732Z,1.2
2023-03-25T05:46:11.975Z,1.2
2023-03-25T05:47:28.214Z,1.2
2023-03-25T05:48:44.461Z,1.1
2023-03-25T05:50:00.686Z,1.2
2023-03-25T05:51:16.928Z,1.1
2023-03-25T05:52:32.187Z,1.1
2023-03-25T05:53:48.422Z,1
2023-03-25T05:55:04.667Z,1.1
2023-03-25T05:56:20.918Z,1.1
2023-03-25T05:57:37.151Z,1.1
2023-03-25T05:58:53.387Z,1.2
2023-03-25T06:00:09.630Z,1.1
2023-03-25T06:01:25.864Z,1.2
2023-03-25T06:02:42.106Z,1.1
2023-03-25T06:03:58.342Z,1.2
2023-03-25T06:05:14.577Z,1.1
2023-03-25T06:06:30.830Z,1.1
2023-03-25T06:07:47.071Z,1.2
2023-03-25T06:09:02.329Z,1.1
2023-03-25T06:10:18.561Z,1.4
2023-03-25T06:11:34.795Z,1.3
2023-03-25T06:12:51.047Z,1
2023-03-25T06:14:07.277Z,1.1
2023-03-25T06:15:23.525Z,1.1
2023-03-25T06:16:39.758Z,1.1
2023-03-25T06:17:56.006Z,1
2023-03-25T06:19:12.235Z,1.2
2023-03-25T06:20:28.473Z,1.1
2023-03-25T06:21:44.726Z,1
2023-03-25T06:23:00.961Z,1.1
2023-03-25T06:24:17.196Z,1.1
2023-03-25T06:25:32.468Z,1.2
2023-03-25T06:26:48.690Z,1.2
2023-03-25T06:28:04.946Z,1.1
2023-03-25T06:29:21.182Z,1.1
2023-03-25T06:30:37.409Z,1.2
2023-03-25T06:31:53.662Z,1
2023-03-25T06:33:09.894Z,0.9
2023-03-25T06:34:26.133Z,1
2023-03-25T06:35:42.376Z,1.1
2023-03-25T06:36:58.615Z,1.1
2023-03-25T06:38:14.869Z,1
2023-03-25T06:39:31.103Z,1.1
2023-03-25T06:40:47.336Z,1.2
2023-03-25T06:42:02.603Z,1
2023-03-25T06:43:18.835Z,1.1
2023-03-25T06:44:35.068Z,1.3
2023-03-25T06:45:51.314Z,1
2023-03-25T06:47:07.553Z,1
2023-03-25T06:48:23.794Z,1.1
2023-03-25T06:49:40.038Z,1.1
2023-03-25T06:50:56.283Z,1.1
2023-03-25T06:52:12.509Z,1.1
2023-03-25T06:53:28.758Z,1
2023-03-25T06:54:45.002Z,1.2
2023-03-25T06:56:01.224Z,1
2023-03-25T06:57:17.480Z,1.2
2023-03-25T06:58:32.727Z,1.1
2023-03-25T06:59:48.981Z,1.1
2023-03-25T07:01:05.216Z,1.2
2023-03-25T07:02:21.441Z,1.2
2023-03-25T07:03:37.695Z,1.2
2023-03-25T07:04:53.936Z,1.2
2023-03-25T07:06:10.159Z,1.1
2023-03-25T07:07:26.400Z,1.3
2023-03-25T07:08:42.639Z,1.1
2023-03-25T07:09:58.885Z,1.2
2023-03-25T07:11:15.132Z,1.3
2023-03-25T07:12:31.372Z,1.3
2023-03-25T07:13:47.604Z,1.6
2023-03-25T07:15:02.854Z,1.4
2023-03-25T07:16:19.111Z,1.2
2023-03-25T07:17:35.341Z,1.3
2023-03-25T07:18:51.586Z,1.2
2023-03-25T07:20:07.826Z,1.4
2023-03-25T07:21:24.065Z,1.2
2023-03-25T07:22:39.340Z,1.3
2023-03-25T07:23:55.563Z,1.2
2023-03-25T07:25:11.813Z,1.3
2023-03-25T07:26:28.054Z,1.1
2023-03-25T07:27:44.276Z,1.1
2023-03-25T07:29:00.522Z,1.1
2023-03-25T07:30:16.762Z,1.1
2023-03-25T07:31:33.017Z,1.3
2023-03-25T07:32:49.237Z,1.2
2023-03-25T07:34:05.483Z,1.1
2023-03-25T07:35:21.726Z,1.2
2023-03-25T07:36:37.963Z,1.1
2023-03-25T07:37:54.202Z,1.1
2023-03-25T07:39:09.450Z,1.2
2023-03-25T07:40:25.695Z,1.1
2023-03-25T07:41:41.938Z,1.1
2023-03-25T07:42:58.173Z,1.3
2023-03-25T07:44:14.416Z,1.2
2023-03-25T07:45:30.663Z,1.1
2023-03-25T07:46:46.891Z,1.1
2023-03-25T07:48:03.131Z,1.1
2023-03-25T07:49:19.376Z,1.1
2023-03-25T07:50:35.619Z,1.1
2023-03-25T07:51:51.847Z,1.3
2023-03-25T07:53:08.092Z,1.2
2023-03-25T07:55:40.583Z,1.1
2023-03-25T07:56:55.834Z,1.1
2023-03-25T07:58:12.071Z,1.1
2023-03-25T07:59:28.301Z,1.1
2023-03-25T08:00:44.548Z,1.1
2023-03-25T08:02:00.797Z,1.1
2023-03-25T08:03:17.029Z,1.2
2023-03-25T08:04:33.273Z,1.2
2023-03-25T08:05:49.516Z,1.1
2023-03-25T08:07:05.753Z,1.1
2023-03-25T08:08:21.990Z,1.2
2023-03-25T08:09:38.222Z,1.2
2023-03-25T08:10:54.473Z,1.2
2023-03-25T08:12:10.704Z,1.2
2023-03-25T08:13:25.975Z,1.2
2023-03-25T08:14:42.212Z,1.1
2023-03-25T08:15:58.444Z,1.1
2023-03-25T08:17:14.680Z,1.2
2023-03-25T08:18:30.933Z,1.1
2023-03-25T08:19:47.166Z,1.1
2023-03-25T08:21:03.396Z,1.2
2023-03-25T08:22:19.648Z,1.2
2023-03-25T08:23:35.881Z,1.1
2023-03-25T08:24:52.120Z,1.2
2023-03-25T08:26:08.361Z,1.3
2023-03-25T08:27:24.618Z,1
2023-03-25T08:28:40.857Z,1.2
2023-03-25T08:29:56.108Z,1.2
2023-03-25T08:31:12.340Z,1.2
2023-03-25T08:32:28.570Z,1.2
2023-03-25T08:33:44.818Z,1.2
2023-03-25T08:35:01.062Z,1.2
2023-03-25T08:36:17.306Z,1.2
2023-03-25T08:37:33.533Z,1.1
2023-03-25T08:38:49.783Z,1.4
2023-03-25T08:40:06.023Z,1.2
2023-03-25T08:41:22.267Z,1.2
2023-03-25T08:42:38.498Z,1.3
2023-03-25T08:43:54.745Z,1.1
2023-03-25T08:45:10.978Z,1.2
2023-03-25T08:46:26.230Z,1.1
2023-03-25T08:47:42.476Z,1.1
2023-03-25T08:48:58.707Z,1.1
2023-03-25T08:50:14.959Z,1.2
2023-03-25T08:51:31.195Z,1.1
2023-03-25T08:52:47.433Z,1.1
2023-03-25T08:54:03.667Z,1.1
2023-03-25T08:55:19.915Z,1.2
2023-03-25T08:56:36.157Z,1.2
2023-03-25T08:57:52.396Z,1.2
2023-03-25T08:59:08.636Z,1
2023-03-25T09:00:24.869Z,1.2
2023-03-25T09:01:41.113Z,1.2
2023-03-25T09:02:56.375Z,1.1
2023-03-25T09:04:12.607Z,1.1
2023-03-25T09:05:28.867Z,1.2
2023-03-25T09:06:45.099Z,1.2
2023-03-25T09:08:01.334Z,1.1
2023-03-25T09:09:17.568Z,1.2
2023-03-25T09:10:33.817Z,1.2
2023-03-25T09:11:50.051Z,1.1
2023-03-25T09:13:06.288Z,1.2
2023-03-25T09:14:22.540Z,1.4
2023-03-25T09:15:38.772Z,1.1
2023-03-25T09:16:55.013Z,1.2
2023-03-25T09:18:11.255Z,1.2
2023-03-25T09:19:26.508Z,1.1
2023-03-25T09:20:42.753Z,1.1
2023-03-25T09:21:58.977Z,1.3
2023-03-25T09:23:15.233Z,1.2
2023-03-25T09:24:31.480Z,1.4
2023-03-25T09:27:03.951Z,1.1
2023-03-25T09:28:20.190Z,1.2
2023-03-25T09:29:36.434Z,1.4
2023-03-25T09:30:52.673Z,1.5
2023-03-25T09:32:08.907Z,1.4
2023-03-25T09:33:25.155Z,1.1
2023-03-25T09:34:41.394Z,1.2
2023-03-25T09:35:56.642Z,1.1
2023-03-25T09:37:12.885Z,1.1
2023-03-25T09:38:29.120Z,1
2023-03-25T09:39:45.366Z,1
2023-03-25T09:41:01.589Z,1
2023-03-25T09:42:17.837Z,1
2023-03-25T09:43:34.087Z,1
2023-03-25T09:44:50.327Z,0.9
2023-03-25T09:46:06.565Z,1
2023-03-25T09:47:22.799Z,0.9
2023-03-25T09:48:39.052Z,0.9
2023-03-25T09:49:55.291Z,0.9
2023-03-25T09:51:11.520Z,1.1
2023-03-25T09:52:26.775Z,1.1
2023-03-25T09:53:43.026Z,0.9
2023-03-25T09:54:59.263Z,0.9
2023-03-25T09:56:15.489Z,1.1
2023-03-25T09:57:31.742Z,1.1
2023-03-25T09:58:47.973Z,1.1
2023-03-25T10:00:04.211Z,1
2023-03-25T10:01:20.457Z,1
2023-03-25T10:02:36.704Z,1.1
2023-03-25T10:03:52.932Z,1.1
2023-03-25T10:05:09.162Z,1.2
2023-03-25T10:06:25.413Z,1
2023-03-25T10:07:41.645Z,1.1
2023-03-25T10:08:56.918Z,1
2023-03-25T10:10:13.153Z,1
2023-03-25T10:12:45.000Z,1
2023-03-25T10:14:01.872Z,0.9
2023-03-25T10:15:18.109Z,1
2023-03-25T10:16:34.362Z,1.1
2023-03-25T10:17:50.583Z,1.1
2023-03-25T10:19:06.820Z,1.2
2023-03-25T10:20:23.082Z,1.2
2023-03-25T10:21:39.302Z,1.3
2023-03-25T10:22:55.550Z,1.1
2023-03-25T10:24:11.799Z,1.1
2023-03-25T10:25:27.051Z,1
2023-03-25T10:26:43.284Z,0.9
2023-03-25T10:27:59.528Z,0.9
2023-03-25T10:29:15.771Z,1
2023-03-25T10:30:32.008Z,0.9
2023-03-25T10:31:48.234Z,0.9
2023-03-25T10:33:04.486Z,1.2
2023-03-25T10:34:20.711Z,1
2023-03-25T10:35:36.962Z,1
2023-03-25T10:36:53.204Z,0.9
2023-03-25T10:38:09.448Z,0.9
2023-03-25T10:39:25.690Z,1
2023-03-25T10:40:41.922Z,1.1
2023-03-25T10:41:57.168Z,1
2023-03-25T10:43:13.417Z,1.1
2023-03-25T10:44:29.648Z,1
2023-03-25T10:45:45.900Z,1
2023-03-25T10:47:02.151Z,0.9
2023-03-25T10:48:18.369Z,1
2023-03-25T10:49:34.612Z,1
2023-03-25T10:50:50.861Z,1
2023-03-25T10:52:07.084Z,0.9
2023-03-25T10:53:23.337Z,1.2
2023-03-25T10:54:39.590Z,0.9
2023-03-25T10:55:55.825Z,1
2023-03-25T10:57:12.048Z,0.9
2023-03-25T10:58:27.312Z,0.8
2023-03-25T10:59:43.543Z,0.9
2023-03-25T11:00:59.798Z,0.9
2023-03-25T11:02:16.029Z,1
2023-03-25T11:03:32.278Z,1
2023-03-25T11:04:48.499Z,0.9
2023-03-25T11:06:04.750Z,0.9
2023-03-25T11:07:20.991Z,1
2023-03-25T11:08:37.234Z,1
2023-03-25T11:09:53.460Z,1.1
2023-03-25T11:11:09.709Z,1
2023-03-25T11:12:25.939Z,0.8
2023-03-25T11:13:42.194Z,0.9
2023-03-25T11:14:57.432Z,0.9
2023-03-25T11:16:13.676Z,0.9
2023-03-25T11:17:29.918Z,1
2023-03-25T11:18:46.173Z,1
2023-03-25T11:20:02.404Z,0.8
2023-03-25T11:21:18.651Z,0.9
2023-03-25T11:22:34.891Z,0.9
2023-03-25T11:23:51.135Z,1.3
2023-03-25T11:25:07.365Z,1
2023-03-25T11:26:23.601Z,1.2
2023-03-25T11:27:39.842Z,1.5
2023-03-25T11:28:56.079Z,1.2
2023-03-25T11:30:12.316Z,1
2023-03-25T11:31:27.581Z,1.4
2023-03-25T11:32:43.818Z,1
2023-03-25T11:34:00.064Z,1.2
2023-03-25T11:35:16.300Z,0.9
2023-03-25T11:36:32.528Z,1.1
2023-03-25T11:37:47.811Z,0.9
2023-03-25T11:39:04.045Z,0.9
2023-03-25T11:40:20.278Z,1.1
2023-03-25T11:41:36.516Z,1.1
2023-03-25T11:42:52.757Z,1.1
2023-03-25T11:44:09.006Z,1.1
2023-03-25T11:45:25.244Z,0.9
2023-03-25T11:46:41.478Z,1
2023-03-25T11:47:57.723Z,1.1
2023-03-25T11:49:13.960Z,1
2023-03-25T11:50:30.197Z,1.1
2023-03-25T11:51:46.447Z,0.9
2023-03-25T11:53:02.686Z,1
2023-03-25T11:54:17.930Z,1
2023-03-25T11:55:34.160Z,1
2023-03-25T11:56:50.410Z,0.9
2023-03-25T11:58:06.642Z,1
2023-03-25T11:59:22.896Z,1
2023-03-25T12:00:39.122Z,0.9
2023-03-25T12:01:55.375Z,1
2023-03-25T12:03:11.603Z,1
2023-03-25T12:04:27.838Z,0.9
2023-03-25T12:05:44.091Z,1
2023-03-25T12:07:00.333Z,1
2023-03-25T12:08:16.558Z,1.1
2023-03-25T12:09:32.798Z,1.1
2023-03-25T12:10:48.067Z,1.1
2023-03-25T12:12:04.302Z,1.3
2023-03-25T12:13:20.549Z,1.1
2023-03-25T12:14:36.801Z,1.1
2023-03-25T12:15:53.016Z,1
2023-03-25T12:17:09.276Z,1
2023-03-25T12:18:25.503Z,1
2023-03-25T12:19:41.742Z,1
2023-03-25T12:20:57.977Z,1
2023-03-25T12:22:14.231Z,1
2023-03-25T12:23:30.460Z,1
2023-03-25T12:24:46.697Z,0.9
2023-03-25T12:26:02.929Z,0.9
2023-03-25T12:27:18.211Z,1
2023-03-25T12:29:50.669Z,1
2023-03-25T12:31:06.910Z,1
2023-03-25T12:32:23.143Z,0.9
2023-03-25T12:33:39.396Z,1
2023-03-25T12:34:55.640Z,1
2023-03-25T12:36:11.881Z,1
2023-03-25T12:37:28.108Z,1.2
2023-03-25T12:38:44.364Z,1.1
2023-03-25T12:40:00.602Z,1.3
2023-03-25T12:41:16.841Z,1
2023-03-25T12:42:33.084Z,1
2023-03-25T12:43:48.323Z,1
2023-03-25T12:45:04.559Z,1
2023-03-25T12:46:20.803Z,1
2023-03-25T12:47:37.062Z,1.1
2023-03-25T12:48:53.288Z,1.1
2023-03-25T12:50:09.531Z,1
2023-03-25T12:51:25.767Z,1.1
2023-03-25T12:52:42.031Z,1.1
2023-03-25T12:53:58.249Z,1.2
2023-03-25T12:55:14.491Z,1.1
2023-03-25T12:56:30.728Z,0.9
2023-03-25T12:57:46.967Z,1.1
2023-03-25T12:59:03.203Z,1
2023-03-25T13:00:18.473Z,0.9
2023-03-25T13:01:34.699Z,1.4
2023-03-25T13:02:50.932Z,1.2
2023-03-25T13:04:07.173Z,1
2023-03-25T13:05:23.413Z,1
2023-03-25T13:06:39.659Z,1.2
2023-03-25T13:07:55.916Z,1
2023-03-25T13:09:12.148Z,1.1
2023-03-25T13:10:28.378Z,1.1
2023-03-25T13:11:44.628Z,1.1
2023-03-25T13:13:00.865Z,1.2
2023-03-25T13:14:17.095Z,1.1
2023-03-25T13:15:33.341Z,1.1
2023-03-25T13:16:48.604Z,1.1
2023-03-25T13:18:04.855Z,1.1
2023-03-25T13:19:21.083Z,1
2023-03-25T13:20:37.312Z,0.9
2023-03-25T13:21:53.563Z,1
2023-03-25T13:23:09.784Z,1.1
2023-03-25T13:24:26.025Z,1.1
2023-03-25T13:25:42.280Z,1.2
2023-03-25T13:26:58.522Z,1
2023-03-25T13:28:14.748Z,0.9
2023-03-25T13:29:30.997Z,1
2023-03-25T13:30:47.223Z,1
2023-03-25T13:32:03.480Z,1
2023-03-25T13:33:18.718Z,1
2023-03-25T13:34:34.983Z,1
2023-03-25T13:35:51.214Z,1.1
2023-03-25T13:37:07.457Z,1
2023-03-25T13:38:23.682Z,1
2023-03-25T13:39:39.944Z,0.9
2023-03-25T13:40:56.155Z,0.9
2023-03-25T13:42:12.407Z,1
2023-03-25T13:43:28.640Z,0.9
2023-03-25T13:44:44.880Z,1
2023-03-25T13:46:01.120Z,0.9
2023-03-25T13:47:17.376Z,1
2023-03-25T13:48:33.617Z,1
2023-03-25T13:49:48.868Z,1.2
2023-03-25T13:51:05.105Z,1.1
2023-03-25T13:52:21.336Z,1.2
2023-03-25T13:53:37.570Z,1.3
2023-03-25T13:54:53.811Z,1.1
2023-03-25T13:56:10.061Z,1.1
2023-03-25T13:57:26.294Z,1.3
2023-03-25T13:58:42.533Z,1.1
2023-03-25T13:59:58.785Z,1.1
2023-03-25T14:01:15.018Z,1
2023-03-25T14:02:31.249Z,1.1
2023-03-25T14:03:47.502Z,1.1
2023-03-25T14:05:03.746Z,1.2
2023-03-25T14:06:18.996Z,1.3
2023-03-25T14:07:35.234Z,1.1
2023-03-25T14:08:51.488Z,1
2023-03-25T14:10:07.000Z,1.1
2023-03-25T14:11:23.962Z,1.1
2023-03-25T14:12:40.212Z,1.1
2023-03-25T14:13:56.437Z,1.2
2023-03-25T14:15:12.697Z,1.2
2023-03-25T14:16:28.921Z,1.5
2023-03-25T14:17:45.150Z,1
2023-03-25T14:19:01.383Z,1.1
2023-03-25T14:20:17.641Z,1.2
2023-03-25T14:21:33.876Z,1.2
2023-03-25T14:22:49.127Z,1.2
2023-03-25T14:24:05.378Z,1.2
2023-03-25T14:25:21.626Z,1.3
2023-03-25T14:26:37.856Z,1.2
2023-03-25T14:27:54.088Z,1.2
2023-03-25T14:29:10.332Z,1.2
2023-03-25T14:30:26.561Z,1.1
2023-03-25T14:31:42.805Z,1.3
2023-03-25T14:32:59.052Z,1.1
2023-03-25T14:34:15.279Z,1.2
2023-03-25T14:35:31.523Z,1.2
2023-03-25T14:36:47.774Z,1.3
2023-03-25T14:38:04.014Z,1.2
2023-03-25T14:39:19.271Z,1.3
2023-03-25T14:40:35.499Z,1.2
2023-03-25T14:41:51.752Z,1.2
2023-03-25T14:43:07.982Z,1.3
2023-03-25T14:44:24.228Z,1
2023-03-25T14:45:40.452Z,1.3
2023-03-25T14:46:56.700Z,1.4
2023-03-25T14:48:12.938Z,1.6
2023-03-25T14:49:29.192Z,1.6
2023-03-25T14:50:45.419Z,1.4
2023-03-25T14:52:01.650Z,1.4
2023-03-25T14:53:17.895Z,1.3
2023-03-25T14:54:34.139Z,1.4
2023-03-25T14:55:49.397Z,1.5
2023-03-25T14:57:05.654Z,1.4
2023-03-25T14:58:21.870Z,1.6
2023-03-25T14:59:38.135Z,1.5
2023-03-25T15:00:54.351Z,1.4
2023-03-25T15:02:10.586Z,1.3
2023-03-25T15:03:26.827Z,1.3
2023-03-25T15:04:43.074Z,1.3
2023-03-25T15:05:59.335Z,1.3
2023-03-25T15:07:15.552Z,1.5
2023-03-25T15:08:31.789Z,1.2
2023-03-25T15:09:48.040Z,1.3
2023-03-25T15:11:04.276Z,1.2
2023-03-25T15:12:19.537Z,1.3
2023-03-25T15:13:35.770Z,1.2
2023-03-25T15:14:52.018Z,1.4
2023-03-25T15:16:08.245Z,1.2
2023-03-25T15:17:24.500Z,1.2
2023-03-25T15:18:40.720Z,1.2
2023-03-25T15:19:56.977Z,1.3
2023-03-25T15:21:13.202Z,1.2
2023-03-25T15:22:29.448Z,1.6
2023-03-25T15:23:45.684Z,1.3
2023-03-25T15:25:01.920Z,1.4
2023-03-25T15:26:18.171Z,1.3
2023-03-25T15:27:34.414Z,1.4
2023-03-25T15:28:49.674Z,1.3
2023-03-25T15:30:05.907Z,1.4
2023-03-25T15:31:22.148Z,1.2
2023-03-25T15:32:38.373Z,1.2
2023-03-25T15:33:54.616Z,1.2
2023-03-25T15:35:10.864Z,1.5
2023-03-25T15:36:27.112Z,1.3
2023-03-25T15:38:59.000Z,1.3
2023-03-25T15:40:15.833Z,1.2
2023-03-25T15:41:32.065Z,1.4
2023-03-25T15:42:48.306Z,1.2
2023-03-25T15:44:04.535Z,1.3
2023-03-25T15:45:19.820Z,1.5
2023-03-25T15:46:36.045Z,1.2
2023-03-25T15:47:52.291Z,1.3
2023-03-25T15:49:08.529Z,1.2
2023-03-25T15:50:24.761Z,1.3
2023-03-25T15:51:41.007Z,1.3
2023-03-25T15:52:56.272Z,1.3
2023-03-25T15:54:12.500Z,1.3
2023-03-25T15:55:28.747Z,1.4
2023-03-25T15:56:44.978Z,1.3
2023-03-25T15:58:01.237Z,1.3
2023-03-25T15:59:17.465Z,1.4
2023-03-25T16:00:33.707Z,1.4
2023-03-25T16:01:49.945Z,1.4
2023-03-25T16:03:06.179Z,1.2
2023-03-25T16:04:22.429Z,1.4
2023-03-25T16:05:38.662Z,1.4
2023-03-25T16:06:54.901Z,1.3
2023-03-25T16:08:11.132Z,1.3
2023-03-25T16:09:26.396Z,1.3
2023-03-25T16:10:42.652Z,1.4
2023-03-25T16:11:58.865Z,1.2
2023-03-25T16:13:15.104Z,1.1
2023-03-25T16:14:31.349Z,1.4
2023-03-25T16:15:47.584Z,1.2
2023-03-25T16:17:03.836Z,1.4
2023-03-25T16:18:20.096Z,1.3
2023-03-25T16:19:36.330Z,1.4
2023-03-25T16:20:52.547Z,1.4
2023-03-25T16:22:08.790Z,1.1
2023-03-25T16:23:25.026Z,1.3
2023-03-25T16:24:41.272Z,1.6
2023-03-25T16:25:56.530Z,1.1
2023-03-25T16:27:12.765Z,1.2
2023-03-25T16:28:28.999Z,1.1
2023-03-25T16:29:45.255Z,1.1
2023-03-25T16:31:01.483Z,1.1
2023-03-25T16:32:17.729Z,1.1
2023-03-25T16:33:33.969Z,1.1
2023-03-25T16:34:50.210Z,1.1
2023-03-25T16:36:06.456Z,1.1
2023-03-25T16:37:22.685Z,1.2
2023-03-25T16:38:38.940Z,1.2
2023-03-25T16:39:55.167Z,1.2
2023-03-25T16:41:11.403Z,1.3
2023-03-25T16:42:26.667Z,1.3
2023-03-25T16:43:42.921Z,1.2
2023-03-25T16:44:59.159Z,1.4
2023-03-25T16:46:15.385Z,1.3
2023-03-25T16:47:31.632Z,1.2
2023-03-25T16:48:47.860Z,1.2
2023-03-25T16:50:04.125Z,1.1
2023-03-25T16:51:20.348Z,1.1
2023-03-25T16:52:36.582Z,1.2
2023-03-25T16:53:52.819Z,1.2
2023-03-25T16:55:09.072Z,1.2
2023-03-25T16:56:25.308Z,1.2
2023-03-25T16:57:41.540Z,1.2
2023-03-25T16:58:56.797Z,1.3
2023-03-25T17:00:13.034Z,1.3
2023-03-25T17:01:29.282Z,1.3
2023-03-25T17:02:45.518Z,1.2
2023-03-25T17:04:01.770Z,1.2
2023-03-25T17:05:17.990Z,1.2
2023-03-25T17:06:34.254Z,1.3
2023-03-25T17:07:50.495Z,1.2
2023-03-25T17:09:06.730Z,1.2
2023-03-25T17:10:22.967Z,1.2
2023-03-25T17:11:39.200Z,1.2
2023-03-25T17:12:55.435Z,1.4
2023-03-25T17:14:11.676Z,1.3
2023-03-25T17:15:26.936Z,1.3
2023-03-25T17:16:43.174Z,1.3
2023-03-25T17:17:59.432Z,1.1
2023-03-25T17:19:15.645Z,1.5
2023-03-25T17:20:31.903Z,1.1
2023-03-25T17:21:48.152Z,1.4
2023-03-25T17:23:04.376Z,1.2
2023-03-25T17:24:20.622Z,1.1
2023-03-25T17:25:36.853Z,1.2
2023-03-25T17:26:53.115Z,1.1
2023-03-25T17:28:09.332Z,1.2
2023-03-25T17:29:25.585Z,1.2
2023-03-25T17:30:41.824Z,1.2
2023-03-25T17:31:57.073Z,1.2
2023-03-25T17:33:13.309Z,1.2
2023-03-25T17:34:29.558Z,1
2023-03-25T17:35:45.783Z,1.2
2023-03-25T17:37:02.029Z,1.2
2023-03-25T17:38:18.274Z,1.2
2023-03-25T17:39:34.510Z,1.1
2023-03-25T17:40:50.744Z,1.1
2023-03-25T17:42:07.007Z,1.2
2023-03-25T17:43:23.223Z,1.1
2023-03-25T17:44:39.487Z,1.3
2023-03-25T17:45:55.718Z,1.1
2023-03-25T17:47:11.940Z,1